createdAt,value
2023-06-17T00:00:42.428Z,95266.00
2023-06-17T00:01:42.332Z,95262.00
2023-06-17T00:02:42.382Z,95260.00
2023-06-17T00:03:42.342Z,95262.00
2023-06-17T00:04:42.332Z,95262.00
2023-06-17T00:05:42.302Z,95262.00
2023-06-17T00:06:42.275Z,95264.00
2023-06-17T00:07:42.262Z,95264.00
2023-06-17T00:08:42.212Z,95266.00
2023-06-17T00:09:42.221Z,95268.00
2023-06-17T00:10:42.227Z,95273.00
2023-06-17T00:11:42.182Z,95275.00
2023-06-17T00:12:42.198Z,95279.00
2023-06-17T00:13:42.167Z,95279.00
2023-06-17T00:14:42.157Z,95281.00
2023-06-17T00:15:42.118Z,95283.00
2023-06-17T00:16:42.174Z,95281.00
2023-06-17T00:17:42.129Z,95275.00
2023-06-17T00:18:42.090Z,95269.00
2023-06-17T00:19:42.089Z,95264.00
2023-06-17T00:20:42.090Z,95258.00
2023-06-17T00:21:42.045Z,95254.00
2023-06-17T00:22:42.052Z,95252.00
2023-06-17T00:23:42.022Z,95254.00
2023-06-17T00:24:42.011Z,95258.00
2023-06-17T00:25:42.006Z,95260.00
2023-06-17T00:26:41.996Z,95264.00
2023-06-17T00:27:41.984Z,95264.00
2023-06-17T00:28:41.942Z,95260.00
2023-06-17T00:29:41.930Z,95258.00
2023-06-17T00:30:41.925Z,95254.00
2023-06-17T00:31:41.905Z,95256.00
2023-06-17T00:32:42.273Z,95260.00
2023-06-17T00:33:41.864Z,95260.00
2023-06-17T00:34:41.841Z,95260.00
2023-06-17T00:35:41.868Z,95260.00
2023-06-17T00:36:41.832Z,95260.00
2023-06-17T00:37:41.825Z,95254.00
2023-06-17T00:38:41.807Z,95252.00
2023-06-17T00:39:41.777Z,95252.00
2023-06-17T00:40:41.777Z,95254.00
2023-06-17T00:41:41.778Z,95254.00
2023-06-17T00:42:41.767Z,95252.00
2023-06-17T00:43:41.779Z,95252.00
2023-06-17T00:44:41.754Z,95252.00
2023-06-17T00:45:41.757Z,95248.00
2023-06-17T00:46:41.787Z,95250.00
2023-06-17T00:47:41.805Z,95246.00
2023-06-17T00:48:41.714Z,95246.00
2023-06-17T00:49:41.687Z,95240.00
2023-06-17T00:50:41.684Z,95244.00
2023-06-17T00:51:41.667Z,95244.00
2023-06-17T00:52:42.894Z,95240.00
2023-06-17T00:53:41.646Z,95244.00
2023-06-17T00:54:41.637Z,95244.00
2023-06-17T00:55:41.620Z,95242.00
2023-06-17T00:56:41.598Z,95240.00
2023-06-17T00:57:41.601Z,95244.00
2023-06-17T00:58:41.595Z,95242.00
2023-06-17T00:59:41.558Z,95244.00
2023-06-17T01:00:41.592Z,95244.00
2023-06-17T01:01:41.540Z,95244.00
2023-06-17T01:02:41.812Z,95246.00
2023-06-17T01:03:41.678Z,95246.00
2023-06-17T01:04:41.648Z,95244.00
2023-06-17T01:05:41.583Z,95246.00
2023-06-17T01:06:41.601Z,95244.00
2023-06-17T01:07:41.617Z,95244.00
2023-06-17T01:08:41.575Z,95242.00
2023-06-17T01:09:41.579Z,95248.00
2023-06-17T01:10:41.567Z,95248.00
2023-06-17T01:11:41.555Z,95250.00
2023-06-17T01:12:41.544Z,95246.00
2023-06-17T01:13:41.568Z,95244.00
2023-06-17T01:14:41.541Z,95244.00
2023-06-17T01:15:41.537Z,95244.00
2023-06-17T01:16:41.570Z,95242.00
2023-06-17T01:17:41.551Z,95244.00
2023-06-17T01:18:41.487Z,95244.00
2023-06-17T01:19:41.496Z,95242.00
2023-06-17T01:20:41.480Z,95246.00
2023-06-17T01:21:41.501Z,95246.00
2023-06-17T01:22:41.453Z,95250.00
2023-06-17T01:23:41.484Z,95246.00
2023-06-17T01:24:41.468Z,95246.00
2023-06-17T01:25:41.474Z,95244.00
2023-06-17T01:26:41.471Z,95242.00
2023-06-17T01:27:41.470Z,95242.00
2023-06-17T01:28:41.453Z,95242.00
2023-06-17T01:29:41.407Z,95240.00
2023-06-17T01:30:41.465Z,95242.00
2023-06-17T01:31:41.416Z,95242.00
2023-06-17T01:32:41.489Z,95244.00
2023-06-17T01:33:41.458Z,95244.00
2023-06-17T01:34:41.436Z,95242.00
2023-06-17T01:35:41.442Z,95244.00
2023-06-17T01:36:41.442Z,95240.00
2023-06-17T01:37:41.436Z,95238.00
2023-06-17T01:38:41.419Z,95236.00
2023-06-17T01:39:41.426Z,95234.00
2023-06-17T01:40:41.429Z,95234.00
2023-06-17T01:41:41.437Z,95238.00
2023-06-17T01:42:41.420Z,95240.00
2023-06-17T01:43:41.450Z,95240.00
2023-06-17T01:44:41.391Z,95240.00
2023-06-17T01:45:41.451Z,95242.00
2023-06-17T01:46:41.413Z,95240.00
2023-06-17T01:47:41.467Z,95242.00
2023-06-17T01:48:41.441Z,95240.00
2023-06-17T01:49:41.408Z,95240.00
2023-06-17T01:50:41.403Z,95242.00
2023-06-17T01:51:41.367Z,95244.00
2023-06-17T01:52:41.395Z,95248.00
2023-06-17T01:53:41.367Z,95246.00
2023-06-17T01:54:41.355Z,95246.00
2023-06-17T01:55:41.387Z,95246.00
2023-06-17T01:56:41.441Z,95246.00
2023-06-17T01:57:41.387Z,95244.00
2023-06-17T01:58:41.371Z,95244.00
2023-06-17T01:59:41.357Z,95242.00
2023-06-17T02:00:41.337Z,95242.00
2023-06-17T02:01:41.347Z,95242.00
2023-06-17T02:02:41.504Z,95246.00
2023-06-17T02:03:41.428Z,95248.00
2023-06-17T02:04:41.380Z,95246.00
2023-06-17T02:05:41.418Z,95248.00
2023-06-17T02:06:41.400Z,95250.00
2023-06-17T02:07:41.400Z,95250.00
2023-06-17T02:08:41.414Z,95252.00
2023-06-17T02:09:41.414Z,95250.00
2023-06-17T02:10:41.438Z,95250.00
2023-06-17T02:11:41.456Z,95248.00
2023-06-17T02:12:41.493Z,95248.00
2023-06-17T02:13:41.498Z,95242.00
2023-06-17T02:14:41.512Z,95240.00
2023-06-17T02:15:41.567Z,95238.00
2023-06-17T02:16:41.661Z,95236.00
2023-06-17T02:17:41.611Z,95236.00
2023-06-17T02:18:41.603Z,95236.00
2023-06-17T02:19:41.675Z,95236.00
2023-06-17T02:20:41.728Z,95240.00
2023-06-17T02:21:41.717Z,95240.00
2023-06-17T02:22:41.712Z,95240.00
2023-06-17T02:23:41.773Z,95238.00
2023-06-17T02:24:41.759Z,95236.00
2023-06-17T02:25:41.780Z,95236.00
2023-06-17T02:26:41.801Z,95234.00
2023-06-17T02:27:41.805Z,95234.00
2023-06-17T02:28:41.824Z,95232.00
2023-06-17T02:29:41.894Z,95232.00
2023-06-17T02:30:41.913Z,95230.00
2023-06-17T02:31:42.054Z,95226.00
2023-06-17T02:32:41.996Z,95226.00
2023-06-17T02:33:42.009Z,95226.00
2023-06-17T02:34:42.021Z,95228.00
2023-06-17T02:35:42.048Z,95230.00
2023-06-17T02:36:42.045Z,95228.00
2023-06-17T02:37:42.087Z,95234.00
2023-06-17T02:38:42.095Z,95234.00
2023-06-17T02:39:42.104Z,95232.00
2023-06-17T02:40:42.144Z,95238.00
2023-06-17T02:41:42.187Z,95236.00
2023-06-17T02:42:42.196Z,95234.00
2023-06-17T02:43:42.267Z,95230.00
2023-06-17T02:44:42.211Z,95232.00
2023-06-17T02:45:42.225Z,95230.00
2023-06-17T02:46:42.266Z,95232.00
2023-06-17T02:47:42.383Z,95232.00
2023-06-17T02:48:42.248Z,95228.00
2023-06-17T02:49:42.294Z,95230.00
2023-06-17T02:50:42.283Z,95228.00
2023-06-17T02:51:42.333Z,95226.00
2023-06-17T02:52:42.323Z,95226.00
2023-06-17T02:53:42.327Z,95224.00
2023-06-17T02:54:42.322Z,95228.00
2023-06-17T02:55:42.330Z,95230.00
2023-06-17T02:56:42.377Z,95232.00
2023-06-17T02:57:42.392Z,95228.00
2023-06-17T02:58:42.416Z,95228.00
2023-06-17T02:59:42.390Z,95230.00
2023-06-17T03:00:42.471Z,95226.00
2023-06-17T03:01:42.472Z,95226.00
2023-06-17T03:02:42.545Z,95228.00
2023-06-17T03:03:42.457Z,95228.00
2023-06-17T03:04:42.474Z,95230.00
2023-06-17T03:05:42.586Z,95232.00
2023-06-17T03:06:42.571Z,95232.00
2023-06-17T03:07:42.572Z,95230.00
2023-06-17T03:08:42.649Z,95232.00
2023-06-17T03:09:42.695Z,95230.00
2023-06-17T03:10:42.712Z,95230.00
2023-06-17T03:11:42.760Z,95228.00
2023-06-17T03:12:42.784Z,95230.00
2023-06-17T03:13:42.835Z,95232.00
2023-06-17T03:14:42.895Z,95232.00
2023-06-17T03:15:42.926Z,95232.00
2023-06-17T03:16:42.968Z,95234.00
2023-06-17T03:17:43.060Z,95236.00
2023-06-17T03:18:43.089Z,95238.00
2023-06-17T03:19:43.102Z,95240.00
2023-06-17T03:20:43.155Z,95240.00
2023-06-17T03:21:43.192Z,95242.00
2023-06-17T03:22:43.267Z,95236.00
2023-06-17T03:23:43.305Z,95240.00
2023-06-17T03:24:43.361Z,95238.00
2023-06-17T03:25:43.382Z,95238.00
2023-06-17T03:26:43.435Z,95236.00
2023-06-17T03:27:43.500Z,95232.00
2023-06-17T03:28:43.546Z,95232.00
2023-06-17T03:29:43.626Z,95234.00
2023-06-17T03:30:43.684Z,95234.00
2023-06-17T03:31:43.713Z,95240.00
2023-06-17T03:32:43.834Z,95238.00
2023-06-17T03:33:43.790Z,95240.00
2023-06-17T03:34:43.844Z,95238.00
2023-06-17T03:35:43.853Z,95236.00
2023-06-17T03:36:43.887Z,95234.00
2023-06-17T03:37:43.923Z,95234.00
2023-06-17T03:38:43.947Z,95236.00
2023-06-17T03:39:44.015Z,95234.00
2023-06-17T03:40:44.042Z,95234.00
2023-06-17T03:41:44.082Z,95230.00
2023-06-17T03:42:44.171Z,95230.00
2023-06-17T03:43:44.243Z,95228.00
2023-06-17T03:44:44.235Z,95228.00
2023-06-17T03:45:44.286Z,95228.00
2023-06-17T03:46:44.372Z,95232.00
2023-06-17T03:47:44.418Z,95234.00
2023-06-17T03:48:44.459Z,95234.00
2023-06-17T03:49:44.504Z,95234.00
2023-06-17T03:50:44.538Z,95232.00
2023-06-17T03:51:44.603Z,95232.00
2023-06-17T03:52:44.628Z,95232.00
2023-06-17T03:53:44.657Z,95232.00
2023-06-17T03:54:44.701Z,95236.00
2023-06-17T03:55:44.811Z,95236.00
2023-06-17T03:56:44.801Z,95240.00
2023-06-17T03:57:44.853Z,95240.00
2023-06-17T03:58:44.878Z,95244.00
2023-06-17T03:59:44.938Z,95244.00
2023-06-17T04:00:45.018Z,95246.00
2023-06-17T04:01:45.039Z,95246.00
2023-06-17T04:02:45.113Z,95246.00
2023-06-17T04:03:45.177Z,95246.00
2023-06-17T04:04:45.211Z,95246.00
2023-06-17T04:05:45.194Z,95246.00
2023-06-17T04:06:45.228Z,95244.00
2023-06-17T04:07:45.268Z,95246.00
2023-06-17T04:08:45.300Z,95242.00
2023-06-17T04:10:01.673Z,95244.00
2023-06-17T04:10:46.326Z,95244.00
2023-06-17T04:11:45.351Z,95246.00
2023-06-17T04:12:45.322Z,95244.00
2023-06-17T04:13:45.288Z,95246.00
2023-06-17T04:14:45.292Z,95244.00
2023-06-17T04:15:45.304Z,95244.00
2023-06-17T04:16:45.326Z,95244.00
2023-06-17T04:17:45.305Z,95244.00
2023-06-17T04:18:45.283Z,95242.00
2023-06-17T04:19:45.281Z,95242.00
2023-06-17T04:20:45.282Z,95240.00
2023-06-17T04:21:45.261Z,95240.00
2023-06-17T04:22:45.256Z,95238.00
2023-06-17T04:23:45.246Z,95238.00
2023-06-17T04:24:45.253Z,95234.00
2023-06-17T04:25:45.254Z,95234.00
2023-06-17T04:26:45.284Z,95234.00
2023-06-17T04:27:45.302Z,95236.00
2023-06-17T04:28:45.370Z,95240.00
2023-06-17T04:29:45.384Z,95240.00
2023-06-17T04:30:45.400Z,95236.00
2023-06-17T04:31:45.434Z,95234.00
2023-06-17T04:32:45.513Z,95234.00
2023-06-17T04:33:45.532Z,95230.00
2023-06-17T04:34:45.545Z,95230.00
2023-06-17T04:35:45.552Z,95232.00
2023-06-17T04:36:45.622Z,95230.00
2023-06-17T04:37:45.649Z,95230.00
2023-06-17T04:38:45.685Z,95236.00
2023-06-17T04:39:45.734Z,95236.00
2023-06-17T04:40:45.704Z,95238.00
2023-06-17T04:41:45.708Z,95242.00
2023-06-17T04:42:45.749Z,95240.00
2023-06-17T04:43:45.741Z,95242.00
2023-06-17T04:44:45.752Z,95240.00
2023-06-17T04:45:45.801Z,95240.00
2023-06-17T04:46:45.846Z,95238.00
2023-06-17T04:47:45.862Z,95236.00
2023-06-17T04:48:45.804Z,95236.00
2023-06-17T04:49:45.848Z,95236.00
2023-06-17T04:50:45.863Z,95238.00
2023-06-17T04:51:45.882Z,95240.00
2023-06-17T04:52:45.919Z,95238.00
2023-06-17T04:53:46.000Z,95236.00
2023-06-17T04:54:45.947Z,95236.00
2023-06-17T04:55:45.973Z,95238.00
2023-06-17T04:56:46.027Z,95240.00
2023-06-17T04:57:46.049Z,95238.00
2023-06-17T04:58:46.026Z,95240.00
2023-06-17T04:59:46.070Z,95242.00
2023-06-17T05:00:46.193Z,95236.00
2023-06-17T05:01:46.128Z,95244.00
2023-06-17T05:02:46.155Z,95242.00
2023-06-17T05:03:46.223Z,95238.00
2023-06-17T05:04:46.153Z,95238.00
2023-06-17T05:05:46.160Z,95238.00
2023-06-17T05:06:46.225Z,95232.00
2023-06-17T05:07:46.229Z,95232.00
2023-06-17T05:08:46.238Z,95232.00
2023-06-17T05:09:46.248Z,95232.00
2023-06-17T05:10:46.266Z,95232.00
2023-06-17T05:11:46.285Z,95232.00
2023-06-17T05:12:46.283Z,95230.00
2023-06-17T05:13:46.316Z,95232.00
2023-06-17T05:14:46.366Z,95232.00
2023-06-17T05:15:46.382Z,95234.00
2023-06-17T05:16:46.426Z,95236.00
2023-06-17T05:17:46.432Z,95234.00
2023-06-17T05:18:46.456Z,95238.00
2023-06-17T05:19:46.442Z,95234.00
2023-06-17T05:20:46.485Z,95236.00
2023-06-17T05:21:46.497Z,95236.00
2023-06-17T05:22:46.525Z,95236.00
2023-06-17T05:23:46.557Z,95236.00
2023-06-17T05:24:46.660Z,95236.00
2023-06-17T05:25:46.554Z,95236.00
2023-06-17T05:26:46.555Z,95238.00
2023-06-17T05:27:46.587Z,95238.00
2023-06-17T05:28:46.589Z,95240.00
2023-06-17T05:29:46.685Z,95240.00
2023-06-17T05:30:46.692Z,95238.00
2023-06-17T05:31:46.673Z,95238.00
2023-06-17T05:32:46.720Z,95238.00
2023-06-17T05:33:46.704Z,95242.00
2023-06-17T05:34:46.709Z,95240.00
2023-06-17T05:35:46.714Z,95242.00
2023-06-17T05:36:46.771Z,95242.00
2023-06-17T05:37:46.777Z,95242.00
2023-06-17T05:38:46.790Z,95242.00
2023-06-17T05:39:46.812Z,95242.00
2023-06-17T05:40:46.860Z,95242.00
2023-06-17T05:41:46.903Z,95240.00
2023-06-17T05:42:46.913Z,95240.00
2023-06-17T05:43:46.913Z,95244.00
2023-06-17T05:44:46.957Z,95246.00
2023-06-17T05:45:46.974Z,95242.00
2023-06-17T05:46:46.988Z,95242.00
2023-06-17T05:47:47.013Z,95242.00
2023-06-17T05:48:47.029Z,95242.00
2023-06-17T05:49:47.045Z,95244.00
2023-06-17T05:50:47.081Z,95242.00
2023-06-17T05:51:47.097Z,95242.00
2023-06-17T05:52:47.175Z,95238.00
2023-06-17T05:53:47.229Z,95238.00
2023-06-17T05:54:47.151Z,95240.00
2023-06-17T05:55:47.215Z,95240.00
2023-06-17T05:56:47.241Z,95234.00
2023-06-17T05:57:47.345Z,95238.00
2023-06-17T05:58:47.268Z,95234.00
2023-06-17T05:59:47.289Z,95238.00
2023-06-17T06:00:47.317Z,95238.00
2023-06-17T06:01:47.374Z,95240.00
2023-06-17T06:02:47.416Z,95240.00
2023-06-17T06:03:47.386Z,95240.00
2023-06-17T06:04:47.328Z,95242.00
2023-06-17T06:05:47.370Z,95240.00
2023-06-17T06:06:47.349Z,95242.00
2023-06-17T06:07:47.397Z,95240.00
2023-06-17T06:08:47.354Z,95240.00
2023-06-17T06:09:47.376Z,95236.00
2023-06-17T06:10:47.395Z,95232.00
2023-06-17T06:11:47.431Z,95236.00
2023-06-17T06:12:47.444Z,95236.00
2023-06-17T06:13:47.505Z,95236.00
2023-06-17T06:14:47.495Z,95234.00
2023-06-17T06:15:47.616Z,95234.00
2023-06-17T06:16:47.725Z,95236.00
2023-06-17T06:17:47.648Z,95230.00
2023-06-17T06:18:47.673Z,95228.00
2023-06-17T06:19:47.700Z,95234.00
2023-06-17T06:20:47.756Z,95232.00
2023-06-17T06:21:47.786Z,95230.00
2023-06-17T06:22:47.793Z,95234.00
2023-06-17T06:23:47.890Z,95232.00
2023-06-17T06:24:47.960Z,95232.00
2023-06-17T06:25:47.927Z,95232.00
2023-06-17T06:26:47.997Z,95226.00
2023-06-17T06:27:48.027Z,95230.00
2023-06-17T06:28:48.074Z,95230.00
2023-06-17T06:29:48.065Z,95226.00
2023-06-17T06:30:48.090Z,95228.00
2023-06-17T06:31:48.173Z,95230.00
2023-06-17T06:32:48.200Z,95226.00
2023-06-17T06:33:48.236Z,95226.00
2023-06-17T06:34:48.259Z,95228.00
2023-06-17T06:35:48.275Z,95230.00
2023-06-17T06:36:48.378Z,95232.00
2023-06-17T06:37:48.366Z,95230.00
2023-06-17T06:38:48.414Z,95232.00
2023-06-17T06:39:48.424Z,95230.00
2023-06-17T06:40:48.461Z,95230.00
2023-06-17T06:41:48.489Z,95230.00
2023-06-17T06:42:48.507Z,95232.00
2023-06-17T06:43:48.550Z,95228.00
2023-06-17T06:44:48.606Z,95228.00
2023-06-17T06:45:48.678Z,95228.00
2023-06-17T06:46:48.699Z,95230.00
2023-06-17T06:47:48.772Z,95228.00
2023-06-17T06:48:48.755Z,95228.00
2023-06-17T06:49:48.777Z,95226.00
2023-06-17T06:50:48.860Z,95222.00
2023-06-17T06:51:48.906Z,95224.00
2023-06-17T06:52:48.939Z,95224.00
2023-06-17T06:53:48.956Z,95224.00
2023-06-17T06:54:48.968Z,95224.00
2023-06-17T06:55:49.020Z,95224.00
2023-06-17T06:56:49.287Z,95219.00
2023-06-17T06:57:49.099Z,95221.00
2023-06-17T06:58:49.123Z,95222.00
2023-06-17T06:59:52.327Z,95221.00
2023-06-17T07:00:49.160Z,95219.00
2023-06-17T07:01:49.123Z,95219.00
2023-06-17T07:02:49.184Z,95217.00
2023-06-17T07:03:49.129Z,95213.00
2023-06-17T07:04:49.524Z,95213.00
2023-06-17T07:05:49.129Z,95211.00
2023-06-17T07:06:49.123Z,95211.00
2023-06-17T07:07:49.103Z,95211.00
2023-06-17T07:08:49.138Z,95213.00
2023-06-17T07:09:49.093Z,95215.00
2023-06-17T07:10:49.119Z,95215.00
2023-06-17T07:11:49.083Z,95215.00
2023-06-17T07:12:49.076Z,95213.00
2023-06-17T07:13:49.067Z,95207.00
2023-06-17T07:14:49.068Z,95207.00
2023-06-17T07:15:49.086Z,95211.00
2023-06-17T07:16:49.191Z,95211.00
2023-06-17T07:17:49.079Z,95205.00
2023-06-17T07:18:49.030Z,95203.00
2023-06-17T07:19:49.046Z,95205.00
2023-06-17T07:20:49.017Z,95201.00
2023-06-17T07:21:49.036Z,95201.00
2023-06-17T07:22:48.995Z,95203.00
2023-06-17T07:23:49.078Z,95203.00
2023-06-17T07:24:48.976Z,95203.00
2023-06-17T07:25:49.015Z,95203.00
2023-06-17T07:26:49.042Z,95201.00
2023-06-17T07:27:48.977Z,95201.00
2023-06-17T07:28:48.995Z,95203.00
2023-06-17T07:29:48.976Z,95207.00
2023-06-17T07:30:49.050Z,95209.00
2023-06-17T07:31:48.971Z,95207.00
2023-06-17T07:32:49.019Z,95201.00
2023-06-17T07:33:48.964Z,95201.00
2023-06-17T07:34:48.968Z,95201.00
2023-06-17T07:35:48.939Z,95199.00
2023-06-17T07:36:48.956Z,95195.00
2023-06-17T07:37:48.910Z,95195.00
2023-06-17T07:38:48.906Z,95195.00
2023-06-17T07:39:48.924Z,95193.00
2023-06-17T07:40:48.889Z,95191.00
2023-06-17T07:41:48.888Z,95191.00
2023-06-17T07:42:48.900Z,95189.00
2023-06-17T07:43:48.856Z,95185.00
2023-06-17T07:44:48.861Z,95189.00
2023-06-17T07:45:48.898Z,95187.00
2023-06-17T07:46:48.934Z,95187.00
2023-06-17T07:47:48.904Z,95187.00
2023-06-17T07:48:48.861Z,95185.00
2023-06-17T07:49:48.853Z,95183.00
2023-06-17T07:50:48.820Z,95179.00
2023-06-17T07:51:48.810Z,95181.00
2023-06-17T07:52:48.818Z,95179.00
2023-06-17T07:53:48.800Z,95177.00
2023-06-17T07:54:48.802Z,95175.00
2023-06-17T07:55:48.781Z,95175.00
2023-06-17T07:56:48.749Z,95175.00
2023-06-17T07:57:48.738Z,95179.00
2023-06-17T07:58:48.741Z,95183.00
2023-06-17T07:59:48.750Z,95181.00
2023-06-17T08:00:48.738Z,95179.00
2023-06-17T08:01:48.824Z,95177.00
2023-06-17T08:02:48.885Z,95175.00
2023-06-17T08:03:48.795Z,95177.00
2023-06-17T08:04:48.722Z,95174.00
2023-06-17T08:05:48.708Z,95174.00
2023-06-17T08:06:48.668Z,95174.00
2023-06-17T08:07:48.682Z,95172.00
2023-06-17T08:08:48.663Z,95170.00
2023-06-17T08:09:48.679Z,95168.00
2023-06-17T08:10:48.679Z,95168.00
2023-06-17T08:11:48.669Z,95168.00
2023-06-17T08:12:48.661Z,95168.00
2023-06-17T08:13:48.653Z,95164.00
2023-06-17T08:14:48.653Z,95168.00
2023-06-17T08:15:48.650Z,95162.00
2023-06-17T08:16:48.779Z,95162.00
2023-06-17T08:17:48.690Z,95152.00
2023-06-17T08:18:48.661Z,95150.00
2023-06-17T08:19:48.692Z,95146.00
2023-06-17T08:20:48.686Z,95146.00
2023-06-17T08:21:48.681Z,95144.00
2023-06-17T08:22:48.663Z,95144.00
2023-06-17T08:23:48.712Z,95146.00
2023-06-17T08:24:48.699Z,95142.00
2023-06-17T08:25:48.669Z,95144.00
2023-06-17T08:26:48.669Z,95144.00
2023-06-17T08:27:48.849Z,95142.00
2023-06-17T08:28:48.689Z,95140.00
2023-06-17T08:29:48.717Z,95138.00
2023-06-17T08:30:48.816Z,95138.00
2023-06-17T08:31:48.750Z,95136.00
2023-06-17T08:32:48.807Z,95136.00
2023-06-17T08:33:48.779Z,95136.00
2023-06-17T08:34:48.754Z,95136.00
2023-06-17T08:35:48.751Z,95132.00
2023-06-17T08:36:48.793Z,95136.00
2023-06-17T08:37:48.779Z,95136.00
2023-06-17T08:38:48.813Z,95134.00
2023-06-17T08:39:48.825Z,95134.00
2023-06-17T08:40:48.866Z,95134.00
2023-06-17T08:41:48.890Z,95134.00
2023-06-17T08:42:48.909Z,95132.00
2023-06-17T08:43:48.923Z,95130.00
2023-06-17T08:44:48.920Z,95124.00
2023-06-17T08:45:48.969Z,95126.00
2023-06-17T08:46:48.959Z,95126.00
2023-06-17T08:47:48.953Z,95121.00
2023-06-17T08:48:48.949Z,95121.00
2023-06-17T08:49:49.003Z,95119.00
2023-06-17T08:50:48.965Z,95121.00
2023-06-17T08:51:48.983Z,95121.00
2023-06-17T08:52:48.986Z,95119.00
2023-06-17T08:53:49.041Z,95117.00
2023-06-17T08:54:49.064Z,95117.00
2023-06-17T08:55:49.074Z,95119.00
2023-06-17T08:56:49.089Z,95115.00
2023-06-17T08:57:49.139Z,95117.00
2023-06-17T08:58:49.162Z,95115.00
2023-06-17T08:59:49.208Z,95113.00
2023-06-17T09:00:49.274Z,95113.00
2023-06-17T09:01:49.258Z,95115.00
2023-06-17T09:02:49.321Z,95115.00
2023-06-17T09:03:49.304Z,95113.00
2023-06-17T09:04:49.393Z,95115.00
2023-06-17T09:05:49.358Z,95115.00
2023-06-17T09:06:49.405Z,95111.00
2023-06-17T09:07:49.419Z,95109.00
2023-06-17T09:08:49.434Z,95111.00
2023-06-17T09:09:49.496Z,95109.00
2023-06-17T09:10:49.525Z,95111.00
2023-06-17T09:11:51.917Z,95109.00
2023-06-17T09:12:49.695Z,95111.00
2023-06-17T09:13:49.780Z,95111.00
2023-06-17T09:14:49.774Z,95115.00
2023-06-17T09:15:49.803Z,95107.00
2023-06-17T09:16:49.944Z,95103.00
2023-06-17T09:17:49.931Z,95107.00
2023-06-17T09:18:49.938Z,95105.00
2023-06-17T09:19:49.968Z,95107.00
2023-06-17T09:20:50.010Z,95105.00
2023-06-17T09:21:50.048Z,95101.00
2023-06-17T09:22:50.050Z,95101.00
2023-06-17T09:23:50.178Z,95099.00
2023-06-17T09:24:50.139Z,95097.00
2023-06-17T09:25:50.183Z,95097.00
2023-06-17T09:26:50.212Z,95097.00
2023-06-17T09:28:05.922Z,95095.00
2023-06-17T09:28:51.225Z,95093.00
2023-06-17T09:29:50.165Z,95093.00
2023-06-17T09:30:50.154Z,95089.00
2023-06-17T09:31:50.157Z,95091.00
2023-06-17T09:32:50.153Z,95089.00
2023-06-17T09:33:50.117Z,95087.00
2023-06-17T09:34:50.089Z,95089.00
2023-06-17T09:35:50.054Z,95087.00
2023-06-17T09:36:50.044Z,95089.00
2023-06-17T09:38:02.654Z,95087.00
2023-06-17T09:38:51.061Z,95085.00
2023-06-17T09:39:50.058Z,95085.00
2023-06-17T09:40:50.047Z,95087.00
2023-06-17T09:41:49.973Z,95087.00
2023-06-17T09:42:49.974Z,95089.00
2023-06-17T09:43:49.948Z,95087.00
2023-06-17T09:44:49.906Z,95085.00
2023-06-17T09:45:49.898Z,95081.00
2023-06-17T09:46:49.982Z,95081.00
2023-06-17T09:47:49.967Z,95081.00
2023-06-17T09:48:49.876Z,95077.00
2023-06-17T09:49:49.917Z,95075.00
2023-06-17T09:50:49.979Z,95077.00
2023-06-17T09:51:50.035Z,95075.00
2023-06-17T09:52:50.042Z,95074.00
2023-06-17T09:53:50.091Z,95074.00
2023-06-17T09:54:50.141Z,95072.00
2023-06-17T09:55:50.177Z,95072.00
2023-06-17T09:56:50.257Z,95070.00
2023-06-17T09:57:50.262Z,95075.00
2023-06-17T09:58:50.324Z,95072.00
2023-06-17T09:59:50.332Z,95074.00
2023-06-17T10:00:50.398Z,95070.00
2023-06-17T10:01:50.419Z,95068.00
2023-06-17T10:02:50.522Z,95070.00
2023-06-17T10:03:50.679Z,95066.00
2023-06-17T10:04:50.556Z,95064.00
2023-06-17T10:05:50.575Z,95062.00
2023-06-17T10:06:50.626Z,95062.00
2023-06-17T10:07:50.705Z,95058.00
2023-06-17T10:08:50.711Z,95060.00
2023-06-17T10:09:50.784Z,95056.00
2023-06-17T10:10:50.813Z,95058.00
2023-06-17T10:11:50.839Z,95058.00
2023-06-17T10:12:50.869Z,95056.00
2023-06-17T10:13:50.916Z,95054.00
2023-06-17T10:14:50.936Z,95056.00
2023-06-17T10:15:50.990Z,95054.00
2023-06-17T10:16:51.016Z,95056.00
2023-06-17T10:17:51.186Z,95052.00
2023-06-17T10:18:51.092Z,95052.00
2023-06-17T10:19:51.136Z,95048.00
2023-06-17T10:20:51.153Z,95046.00
2023-06-17T10:21:51.213Z,95044.00
2023-06-17T10:22:51.233Z,95042.00
2023-06-17T10:23:51.265Z,95046.00
2023-06-17T10:24:51.309Z,95042.00
2023-06-17T10:25:51.311Z,95044.00
2023-06-17T10:26:51.383Z,95042.00
2023-06-17T10:27:51.396Z,95044.00
2023-06-17T10:28:51.404Z,95040.00
2023-06-17T10:29:51.456Z,95040.00
2023-06-17T10:30:51.489Z,95040.00
2023-06-17T10:31:51.532Z,95040.00
2023-06-17T10:32:52.472Z,95042.00
2023-06-17T10:33:51.604Z,95038.00
2023-06-17T10:34:51.645Z,95040.00
2023-06-17T10:35:51.711Z,95038.00
2023-06-17T10:36:51.770Z,95038.00
2023-06-17T10:37:51.793Z,95038.00
2023-06-17T10:38:51.810Z,95034.00
2023-06-17T10:39:51.878Z,95038.00
2023-06-17T10:40:51.916Z,95034.00
2023-06-17T10:41:51.942Z,95030.00
2023-06-17T10:42:51.982Z,95030.00
2023-06-17T10:43:52.022Z,95028.00
2023-06-17T10:44:52.063Z,95030.00
2023-06-17T10:45:52.147Z,95028.00
2023-06-17T10:46:52.182Z,95030.00
2023-06-17T10:47:52.201Z,95027.00
2023-06-17T10:48:52.225Z,95025.00
2023-06-17T10:49:52.272Z,95021.00
2023-06-17T10:50:52.302Z,95023.00
2023-06-17T10:52:52.338Z,95023.00
2023-06-17T10:53:52.303Z,95019.00
2023-06-17T10:54:52.301Z,95015.00
2023-06-17T10:55:52.276Z,95015.00
2023-06-17T10:56:52.254Z,95015.00
2023-06-17T10:57:52.220Z,95011.00
2023-06-17T10:58:52.194Z,95009.00
2023-06-17T10:59:52.207Z,95007.00
2023-06-17T11:00:52.160Z,95007.00
2023-06-17T11:01:52.142Z,95005.00
2023-06-17T11:02:52.224Z,95005.00
2023-06-17T11:03:52.187Z,95007.00
2023-06-17T11:04:52.184Z,95003.00
2023-06-17T11:05:52.213Z,95005.00
2023-06-17T11:06:52.249Z,95003.00
2023-06-17T11:07:52.272Z,95001.00
2023-06-17T11:08:52.311Z,95001.00
2023-06-17T11:09:52.421Z,95003.00
2023-06-17T11:10:52.373Z,94999.00
2023-06-17T11:11:52.427Z,94997.00
2023-06-17T11:12:52.484Z,94999.00
2023-06-17T11:13:52.481Z,94995.00
2023-06-17T11:14:52.531Z,94993.00
2023-06-17T11:15:52.542Z,94993.00
2023-06-17T11:16:52.666Z,94993.00
2023-06-17T11:17:52.714Z,94991.00
2023-06-17T11:18:52.667Z,94989.00
2023-06-17T11:19:52.703Z,94987.00
2023-06-17T11:20:52.766Z,94989.00
2023-06-17T11:21:52.780Z,94989.00
2023-06-17T11:22:52.783Z,94991.00
2023-06-17T11:23:52.846Z,94991.00
2023-06-17T11:24:52.896Z,94991.00
2023-06-17T11:25:53.561Z,94989.00
2023-06-17T11:26:52.957Z,94987.00
2023-06-17T11:27:52.980Z,94987.00
2023-06-17T11:28:53.001Z,94987.00
2023-06-17T11:29:53.060Z,94987.00
2023-06-17T11:30:53.129Z,94983.00
2023-06-17T11:31:53.116Z,94983.00
2023-06-17T11:32:53.200Z,94981.00
2023-06-17T11:33:53.232Z,94977.00
2023-06-17T11:34:53.232Z,94977.00
2023-06-17T11:35:53.266Z,94975.00
2023-06-17T11:36:53.276Z,94975.00
2023-06-17T11:37:53.306Z,94970.00
2023-06-17T11:38:53.416Z,94968.00
2023-06-17T11:39:53.382Z,94966.00
2023-06-17T11:40:53.411Z,94964.00
2023-06-17T11:41:53.485Z,94962.00
2023-06-17T11:42:53.475Z,94960.00
2023-06-17T11:43:53.530Z,94956.00
2023-06-17T11:44:53.549Z,94956.00
2023-06-17T11:45:53.625Z,94954.00